createdAt,value
2022-09-07T00:03:59.487Z,81.39
2022-09-07T00:09:03.297Z,81.30
2022-09-07T00:14:07.565Z,81.07
2022-09-07T00:19:11.832Z,81.07
2022-09-07T00:24:14.708Z,80.96
2022-09-07T00:29:17.591Z,80.96
2022-09-07T00:34:21.824Z,81.31
2022-09-07T00:39:24.815Z,81.84
2022-09-07T00:45:01.883Z,82.17
2022-09-07T00:50:13.635Z,82.44
2022-09-07T00:55:18.720Z,82.07
2022-09-07T01:00:22.453Z,82.09
2022-09-07T01:05:30.661Z,82.49
2022-09-07T01:10:33.630Z,82.75
2022-09-07T01:15:45.553Z,82.73
2022-09-07T01:21:22.653Z,82.29
2022-09-07T01:27:04.242Z,82.18
2022-09-07T01:32:14.062Z,82.00
2022-09-07T01:37:23.930Z,81.67
2022-09-07T01:42:31.512Z,81.75
2022-09-07T01:47:40.554Z,81.79
2022-09-07T01:52:49.900Z,81.39
2022-09-07T01:57:56.890Z,81.47
2022-09-07T02:03:10.045Z,81.91
2022-09-07T02:08:17.032Z,82.09
2022-09-07T02:13:24.400Z,82.00
2022-09-07T02:18:34.492Z,82.22
2022-09-07T02:23:45.515Z,81.85
2022-09-07T02:28:49.171Z,81.90
2022-09-07T02:33:53.682Z,81.82
2022-09-07T02:38:56.560Z,81.41
2022-09-07T02:44:00.036Z,81.04
2022-09-07T02:49:11.885Z,80.50
2022-09-07T02:54:30.666Z,80.04
2022-09-07T02:59:47.128Z,79.45
2022-09-07T03:05:02.643Z,79.64
2022-09-07T03:10:07.734Z,79.11
2022-09-07T03:15:12.669Z,78.96
2022-09-07T03:20:18.158Z,78.92
2022-09-07T03:25:23.403Z,78.88
2022-09-07T03:30:26.354Z,78.76
2022-09-07T03:35:30.596Z,78.70
2022-09-07T03:40:33.433Z,78.75
2022-09-07T03:45:36.292Z,79.18
2022-09-07T03:50:40.539Z,79.36
2022-09-07T03:55:43.399Z,79.95
2022-09-07T04:00:46.278Z,80.40
2022-09-07T04:05:50.553Z,80.40
2022-09-07T04:10:53.438Z,80.20
2022-09-07T04:15:56.412Z,79.96
2022-09-07T04:21:01.271Z,79.73
2022-09-07T04:26:04.110Z,79.51
2022-09-07T04:31:07.399Z,79.37
2022-09-07T04:36:12.044Z,79.09
2022-09-07T04:41:16.663Z,78.94
2022-09-07T04:46:21.809Z,78.83
2022-09-07T04:51:28.418Z,78.98
2022-09-07T04:56:31.840Z,79.04
2022-09-07T05:01:35.585Z,79.05
2022-09-07T05:06:40.130Z,78.99
2022-09-07T05:11:43.156Z,79.02
2022-09-07T05:16:46.067Z,78.73
2022-09-07T05:21:50.338Z,78.87
2022-09-07T05:26:53.624Z,78.57
2022-09-07T05:31:56.863Z,78.22
2022-09-07T05:37:01.124Z,78.33
2022-09-07T05:42:04.176Z,78.14
2022-09-07T05:47:07.315Z,78.14
2022-09-07T05:52:11.864Z,77.92
2022-09-07T05:57:15.107Z,77.99
2022-09-07T06:02:18.060Z,78.04
2022-09-07T06:07:23.366Z,77.94
2022-09-07T06:12:26.543Z,77.92
2022-09-07T06:17:31.334Z,78.28
2022-09-07T06:22:37.823Z,78.36
2022-09-07T06:27:40.706Z,78.30
2022-09-07T06:32:44.115Z,78.17
2022-09-07T06:37:49.213Z,77.69
2022-09-07T06:42:52.089Z,77.58
2022-09-07T06:47:55.391Z,77.50
2022-09-07T06:58:24.712Z,77.22
2022-09-07T07:03:31.855Z,77.11
2022-09-07T07:08:36.635Z,76.76
2022-09-07T07:13:41.169Z,76.70
2022-09-07T07:18:45.332Z,76.48
2022-09-07T07:23:52.784Z,76.12
2022-09-07T07:29:00.754Z,75.81
2022-09-07T07:34:05.034Z,75.53
2022-09-07T07:44:32.174Z,75.17
2022-09-07T07:49:34.991Z,75.09
2022-09-07T07:54:39.164Z,74.75
2022-09-07T07:59:42.466Z,74.57
2022-09-07T08:04:45.568Z,74.64
2022-09-07T08:09:49.780Z,74.26
2022-09-07T08:14:54.051Z,74.07
2022-09-07T08:19:56.969Z,73.63
2022-09-07T08:25:01.278Z,73.63
2022-09-07T08:30:04.440Z,72.95
2022-09-07T08:35:08.073Z,72.63
2022-09-07T08:40:16.925Z,72.26
2022-09-07T08:45:26.726Z,71.73
2022-09-07T08:50:33.769Z,71.74
2022-09-07T08:55:41.389Z,71.31
2022-09-07T09:00:44.173Z,71.14
2022-09-07T09:06:01.672Z,71.10
2022-09-07T09:11:11.565Z,71.11
2022-09-07T09:16:21.705Z,70.84
2022-09-07T09:21:24.814Z,70.67
2022-09-07T09:26:32.125Z,70.84
2022-09-07T09:31:36.987Z,70.20
2022-09-07T09:36:46.164Z,69.65
2022-09-07T09:41:50.361Z,69.33
2022-09-07T09:52:42.972Z,68.52
2022-09-07T10:08:56.394Z,67.21
2022-09-07T10:14:00.646Z,66.99
2022-09-07T10:19:03.455Z,67.18
2022-09-07T10:24:16.016Z,66.56
2022-09-07T10:29:29.141Z,66.19
2022-09-07T10:34:45.918Z,65.88
2022-09-07T10:40:01.245Z,65.63
2022-09-07T10:45:19.105Z,65.48
2022-09-07T10:50:31.610Z,64.74
2022-09-07T10:55:40.193Z,64.93
2022-09-07T11:00:58.292Z,64.98
2022-09-07T11:06:14.333Z,65.00
2022-09-07T11:12:00.645Z,65.33
2022-09-07T11:16:54.895Z,65.70
2022-09-07T11:22:04.741Z,65.69
2022-09-07T11:27:12.252Z,65.42
2022-09-07T11:32:22.434Z,64.83
2022-09-07T11:37:31.692Z,64.80
2022-09-07T11:42:46.040Z,64.45
2022-09-07T11:53:01.726Z,64.32
2022-09-07T11:58:25.470Z,64.33
2022-09-07T12:03:49.553Z,64.17
2022-09-07T12:09:15.180Z,64.58
2022-09-07T12:14:35.182Z,65.32
2022-09-07T12:19:39.506Z,67.64
2022-09-07T12:24:45.331Z,69.58
2022-09-07T12:29:48.573Z,71.84
2022-09-07T12:34:55.266Z,72.64
2022-09-07T12:40:32.328Z,74.73
2022-09-07T12:45:52.642Z,76.74
2022-09-07T12:51:02.248Z,77.97
2022-09-07T12:56:21.857Z,77.99
2022-09-07T13:01:36.215Z,78.41
2022-09-07T13:07:08.153Z,78.54
2022-09-07T13:17:57.345Z,76.93
2022-09-07T13:23:23.947Z,76.92
2022-09-07T13:28:34.841Z,76.69
2022-09-07T13:33:50.492Z,77.49
2022-09-07T13:38:55.554Z,77.39
2022-09-07T13:44:01.603Z,76.91
2022-09-07T13:49:13.295Z,75.82
2022-09-07T13:54:27.966Z,75.83
2022-09-07T13:59:34.881Z,75.26
2022-09-07T14:04:42.692Z,74.65
2022-09-07T14:09:48.815Z,74.22
2022-09-07T14:15:10.186Z,72.43
2022-09-07T14:20:15.491Z,70.04
2022-09-07T14:25:22.172Z,69.78
2022-09-07T14:30:29.066Z,68.48
2022-09-07T14:35:34.521Z,68.62
2022-09-07T14:40:38.793Z,69.50
2022-09-07T14:45:41.584Z,69.74
2022-09-07T14:51:00.865Z,69.84
2022-09-07T14:56:20.904Z,69.34
2022-09-07T15:01:40.993Z,69.35
2022-09-07T15:07:01.789Z,69.12
2022-09-07T15:12:24.925Z,69.16
2022-09-07T15:17:43.389Z,68.50
2022-09-07T15:22:46.613Z,68.67
2022-09-07T15:27:50.977Z,68.46
2022-09-07T15:32:54.054Z,68.06
2022-09-07T15:38:05.547Z,67.39
2022-09-07T15:43:19.922Z,67.44
2022-09-07T15:48:25.943Z,66.80
2022-09-07T15:58:57.599Z,65.44
2022-09-07T16:04:01.412Z,66.35
2022-09-07T16:09:07.101Z,66.21
2022-09-07T16:14:12.346Z,65.80
2022-09-07T16:19:20.122Z,65.38
2022-09-07T16:24:23.056Z,64.34
2022-09-07T16:29:27.308Z,64.43
2022-09-07T16:34:30.213Z,64.55
2022-09-07T16:39:33.022Z,65.02
2022-09-07T16:44:37.110Z,65.21
2022-09-07T16:49:39.836Z,65.25
2022-09-07T16:54:42.600Z,65.68
2022-09-07T16:59:46.692Z,65.76
2022-09-07T17:04:50.607Z,65.67
2022-09-07T17:09:53.435Z,65.74
2022-09-07T17:14:57.552Z,65.52
2022-09-07T17:20:00.238Z,65.57
2022-09-07T17:25:02.942Z,65.50
2022-09-07T17:30:08.090Z,65.19
2022-09-07T17:35:10.814Z,65.42
2022-09-07T17:40:13.589Z,65.51
2022-09-07T17:45:18.168Z,65.27
2022-09-07T17:50:20.900Z,65.25
2022-09-07T17:55:23.878Z,65.76
2022-09-07T18:00:28.144Z,66.48
2022-09-07T18:05:30.873Z,66.98
2022-09-07T18:15:58.513Z,67.92
2022-09-07T18:21:01.262Z,68.02
2022-09-07T18:26:04.007Z,68.56
2022-09-07T18:31:10.293Z,69.13
2022-09-07T18:36:13.744Z,69.19
2022-09-07T18:41:17.278Z,69.62
2022-09-07T18:46:23.124Z,70.06
2022-09-07T18:51:26.302Z,69.77
2022-09-07T18:56:29.175Z,70.78
2022-09-07T19:01:33.327Z,71.27
2022-09-07T19:06:36.104Z,71.76
2022-09-07T19:11:41.683Z,71.76
2022-09-07T19:16:45.888Z,72.39
2022-09-07T19:21:49.460Z,72.11
2022-09-07T19:26:54.707Z,72.21
2022-09-07T19:32:07.479Z,72.35
2022-09-07T19:37:12.124Z,72.37
2022-09-07T19:42:14.844Z,72.47
2022-09-07T19:47:19.768Z,72.54
2022-09-07T19:52:22.631Z,72.60
2022-09-07T19:57:25.452Z,72.54
2022-09-07T20:02:29.550Z,72.82
2022-09-07T20:07:32.262Z,72.82
2022-09-07T20:12:35.001Z,72.54
2022-09-07T20:17:39.090Z,72.78
2022-09-07T20:22:41.836Z,72.73
2022-09-07T20:27:44.552Z,73.08
2022-09-07T20:32:48.628Z,73.36
2022-09-07T20:37:51.358Z,73.59
2022-09-07T20:42:54.070Z,73.63
2022-09-07T20:47:58.169Z,73.61
2022-09-07T20:53:00.940Z,73.77
2022-09-07T20:58:04.201Z,74.35
2022-09-07T21:03:08.289Z,74.41
2022-09-07T21:08:11.285Z,74.67
2022-09-07T21:13:14.919Z,74.62
2022-09-07T21:18:19.164Z,74.87
2022-09-07T21:23:22.073Z,75.39
2022-09-07T21:28:24.929Z,75.84
2022-09-07T21:33:30.351Z,76.06
2022-09-07T21:38:34.427Z,76.31
2022-09-07T21:43:37.669Z,76.65
2022-09-07T21:48:41.801Z,76.83
2022-09-07T21:53:45.050Z,77.38
2022-09-07T21:58:48.010Z,77.45
2022-09-07T22:03:56.787Z,77.60
2022-09-07T22:08:59.679Z,77.81
2022-09-07T22:14:04.655Z,78.11
2022-09-07T22:19:08.775Z,78.27
2022-09-07T22:24:15.125Z,78.36
2022-09-07T22:29:17.859Z,78.51
2022-09-07T22:34:22.024Z,78.59
2022-09-07T22:39:24.758Z,78.81
2022-09-07T22:44:28.889Z,79.07
2022-09-07T22:49:32.981Z,79.06
2022-09-07T22:54:35.689Z,79.19
2022-09-07T22:59:38.501Z,79.62
2022-09-07T23:04:43.327Z,79.82
2022-09-07T23:09:46.138Z,79.78
2022-09-07T23:14:48.823Z,79.93
2022-09-07T23:19:52.948Z,79.63
2022-09-07T23:24:55.715Z,79.61
2022-09-07T23:29:58.409Z,79.49
2022-09-07T23:35:03.815Z,79.23
2022-09-07T23:40:08.589Z,78.77
2022-09-07T23:45:11.673Z,78.47
2022-09-07T23:50:15.748Z,78.15
2022-09-07T23:55:18.576Z,77.93
